Aeroporto :
LOGIN :

Iscrizione | Disclaimer

   EN    FR    IT 

 










Sommario :    VFR   VFR Marginale   IFR   IFR Intensivo   IFR Molto Intensivo
Visibilità : 
Base nubi : 
>= 8 km
>= 3000ft
5 / 8 km
1000 / 3000 ft
1500m / 5 km
500 / 1000 ft
800 / 1500m
200 / 500 ft
< 800m
< 200 ft
Simboli :   Temporali  Nebbia  Neve Forte  Precipitazioni Forti  Vento > 20 kt
SIGMETs :   Varie  Temporali  Ghiacco  Turbolenza  Onda orograficha  Ceneri Vulcaniche







- Altitudine del aeroporto : 364 ft
- Carte del aeroporto


LFAQ - Albert Bray

ULTIMO METAR :
  • 191530Z AUTO 24006KT CAVOK 10/03 Q1021 NOSIG

METARs OBSOLETI :
  • 191500Z AUTO 22009KT 9999 FEW031 BKN038 10/03 Q1021 NOSIG
  • 191430Z AUTO 22009KT 9999 BKN033 10/04 Q1021 NOSIG
  • 191400Z AUTO 25005KT 9999 BKN029 10/04 Q1021 NOSIG
  • 191330Z AUTO 24007KT 190V270 9999 BKN028 BKN034 11/04 Q1021 NOSIG
  • 191300Z AUTO 25006KT CAVOK 10/04 Q1021 NOSIG

TAF TAF LFAQ
Valido dal 19 a 15 ore il 20 a 00 ore UTC


191400Z 1915/1924 24008KT 9999 BKN020
Nessun NOTAM noto per questo aeroporto.



MetMap, La meteo Aeronautica in un colpo d'occhio ! - Copyright ORBIFLY Dicembre 2007 - Disclaimer

ORBIFLY MET'MAP TEAM :

Programmazione e sviluppo : Alexandra Zaïnal
Concezione e sviluppo : Baudouin d'Aumeries
Co-Programmazione e sviluppo : Marc-Olivier Méhu
Supporto tecnico e logistico : Manuel Goepfert
Aiuto per la traduzione : Arnaldo La Scala

Contatto : metmap@orbifly.com




FONTI E CREDITI :

   NOAA